地図

経路データ

SID SEASON NUMBER BASIN SUBBASIN NAME ISO_TIME NATURE LAT LON WMO_WIND WMO_PRES WMO_AGENCY TRACK_TYPE DIST2LAND LANDFALL IFLAG USA_AGENCY USA_ATCF_ID USA_LAT USA_LON USA_RECORD USA_STATUS USA_WIND USA_PRES USA_SSHS USA_R34_NE USA_R34_SE USA_R34_SW USA_R34_NW USA_R50_NE USA_R50_SE USA_R50_SW USA_R50_NW USA_R64_NE USA_R64_SE USA_R64_SW USA_R64_NW USA_POCI USA_ROCI USA_RMW USA_EYE TOKYO_LAT TOKYO_LON TOKYO_GRADE TOKYO_WIND TOKYO_PRES TOKYO_R50_DIR TOKYO_R50_LONG TOKYO_R50_SHORT TOKYO_R30_DIR TOKYO_R30_LONG TOKYO_R30_SHORT TOKYO_LAND CMA_LAT CMA_LON CMA_CAT CMA_WIND CMA_PRES HKO_LAT HKO_LON HKO_CAT HKO_WIND HKO_PRES NEWDELHI_LAT NEWDELHI_LON NEWDELHI_GRADE NEWDELHI_WIND NEWDELHI_PRES NEWDELHI_CI NEWDELHI_DP NEWDELHI_POCI REUNION_LAT REUNION_LON REUNION_TYPE REUNION_WIND REUNION_PRES REUNION_TNUM REUNION_CI REUNION_RMW REUNION_R34_NE REUNION_R34_SE REUNION_R34_SW REUNION_R34_NW REUNION_R50_NE REUNION_R50_SE REUNION_R50_SW REUNION_R50_NW REUNION_R64_NE REUNION_R64_SE REUNION_R64_SW REUNION_R64_NW BOM_LAT BOM_LON BOM_TYPE BOM_WIND BOM_PRES BOM_TNUM BOM_CI BOM_RMW BOM_R34_NE BOM_R34_SE BOM_R34_SW BOM_R34_NW BOM_R50_NE BOM_R50_SE BOM_R50_SW BOM_R50_NW BOM_R64_NE BOM_R64_SE BOM_R64_SW BOM_R64_NW BOM_ROCI BOM_POCI BOM_EYE BOM_POS_METHOD BOM_PRES_METHOD NADI_LAT NADI_LON NADI_CAT NADI_WIND NADI_PRES WELLINGTON_LAT WELLINGTON_LON WELLINGTON_WIND WELLINGTON_PRES DS824_LAT DS824_LON DS824_STAGE DS824_WIND DS824_PRES TD9636_LAT TD9636_LON TD9636_STAGE TD9636_WIND TD9636_PRES TD9635_LAT TD9635_LON TD9635_WIND TD9635_PRES TD9635_ROCI NEUMANN_LAT NEUMANN_LON NEUMANN_CLASS NEUMANN_WIND NEUMANN_PRES MLC_LAT MLC_LON MLC_CLASS MLC_WIND MLC_PRES USA_GUST BOM_GUST BOM_GUST_PER REUNION_GUST REUNION_GUST_PER USA_SEAHGT USA_SEARAD_NE USA_SEARAD_SE USA_SEARAD_SW USA_SEARAD_NW STORM_SPEED STORM_DIR
1972234N17128 1972 77 WP MM CORA 1972-08-21 00:00:00 TS 16.8000 128.000 main 504 480 __O___________ -1 16.8000 128.000 1 23 1007 8 294
1972234N17128 1972 77 WP MM CORA 1972-08-21 03:00:00 TS 16.9651 127.605 main 487 465 __P___________ -1 16.9651 127.605 1 23 1006 8 291
1972234N17128 1972 77 WP MM CORA 1972-08-21 06:00:00 TS 17.1000 127.200 main 465 447 __O___________ -1 17.1000 127.200 1 23 1006 8 286
1972234N17128 1972 77 WP MM CORA 1972-08-21 09:00:00 TS 17.1925 126.785 main 447 415 __P___________ -1 17.1925 126.785 1 23 1006 8 285
1972234N17128 1972 77 WP MM CORA 1972-08-21 12:00:00 TS 17.3000 126.400 main 415 386 __O___________ -1 17.3000 126.400 1 23 1006 7 295
1972234N17128 1972 77 WP MM CORA 1972-08-21 15:00:00 TS 17.4923 126.100 main 386 358 __P___________ -1 17.4923 126.100 1 23 1006 7 305
1972234N17128 1972 77 WP MM CORA 1972-08-21 18:00:00 TS 17.7000 125.800 main 358 320 __O___________ -1 17.7000 125.800 1 23 1006 8 298
1972234N17128 1972 77 WP MM CORA 1972-08-21 21:00:00 TS 17.8500 125.407 main 323 286 __P___________ -1 17.8500 125.407 1 23 1006 8 292
1972234N17128 1972 77 WP MM CORA 1972-08-22 00:00:00 TS 18.0000 125.000 main 286 253 __O___________ -1 18.0000 125.000 1 23 1006 8 295
1972234N17128 1972 77 WP MM CORA 1972-08-22 03:00:00 TS 18.1924 124.642 main 243 211 __P___________ -1 18.1924 124.642 1 23 1006 8 301
1972234N17128 1972 77 WP MM CORA 1972-08-22 06:00:00 TS 18.4000 124.300 main 211 179 __O___________ -1 18.4000 124.300 1 23 1006 8 301
1972234N17128 1972 77 WP MM CORA 1972-08-22 09:00:00 TS 18.5925 123.942 main 170 144 __P___________ -1 18.5925 123.942 1 23 1006 8 301
1972234N17128 1972 77 WP MM CORA 1972-08-22 12:00:00 TS 18.8000 123.600 main 144 124 __O___________ -1 18.8000 123.600 1 23 1006 8 306
1972234N17128 1972 77 WP MM CORA 1972-08-22 15:00:00 TS 19.0349 123.292 main 124 122 __P___________ -1 19.0349 123.292 1 23 1006 8 311
1972234N17128 1972 77 WP MM CORA 1972-08-22 18:00:00 TS 19.3000 123.000 main 124 124 __O___________ -1 19.3000 123.000 1 23 1006 8 316
1972234N17128 1972 77 WP MM CORA 1972-08-22 21:00:00 TS 19.6224 122.700 main 140 140 __P___________ -1 19.6224 122.700 1 23 1004 8 317
1972234N17128 1972 77 WP MM CORA 1972-08-23 00:00:00 TS 19.9000 122.400 main 168 167 __O___________ -1 19.9000 122.400 1 23 1003 7 307
1972234N17128 1972 77 WP MM CORA 1972-08-23 03:00:00 TS 20.0373 122.122 main 178 178 __P___________ -1 20.0373 122.122 1 26 1003 6 290
1972234N17128 1972 77 WP MM CORA 1972-08-23 06:00:00 TS 20.1000 121.800 main 183 175 __O___________ -1 20.1000 121.800 1 29 1003 7 279
1972234N17128 1972 77 WP MM CORA 1972-08-23 09:00:00 TS 20.1500 121.372 main 186 178 __P___________ -1 20.1500 121.372 1 29 1003 9 277
1972234N17128 1972 77 WP MM CORA 1972-08-23 12:00:00 TS 20.2000 120.900 main 178 178 __O___________ -1 20.2000 120.900 1 29 1003 9 281
1972234N17128 1972 77 WP MM CORA 1972-08-23 15:00:00 TS 20.3149 120.443 main 181 172 __P___________ -1 20.3149 120.443 1 29 1003 9 283
1972234N17128 1972 77 WP MM CORA 1972-08-23 18:00:00 TS 20.4000 120.000 main 182 182 __O___________ -1 20.4000 120.000 1 29 1003 8 274
1972234N17128 1972 77 WP MM CORA 1972-08-23 21:00:00 TS 20.3724 119.592 main 202 202 __P___________ -1 20.3724 119.592 1 29 1003 15 244
1972234N17128 1972 77 WP MM CORA 1972-08-24 00:00:00 TS 19.7500 118.600 1006 tokyo main 262 255 O_O______OOO__ jtwc_wp WP161972 19.2000 118.000 25 -1 20.3000 119.200 1 29 1003 19.2000 118.000 TC 25 19.2000 118.000 1 25 19.2000 118.000 25 -99 16 239
1972234N17128 1972 77 WP MM CORA 1972-08-24 03:00:00 TS 19.5558 118.134 main 295 290 P_P______PPP__ WP161972 19.2000 117.800 27 -1 20.2649 118.800 1 29 1003 19.2000 117.800 TC 27 19.2048 117.806 1 27 19.2000 117.800 27 -99 8 248
1972234N17128 1972 77 WP MM CORA 1972-08-24 06:00:00 TS 19.4514 117.802 1006 tokyo main 319 315 O_O______OPO__ jtwc_wp WP161972 19.2000 117.600 30 -1 20.2000 118.400 1 29 1003 19.2000 117.600 TC 30 19.2076 117.610 1 30 19.2000 117.600 30 -99 6 252
1972234N17128 1972 77 WP MM CORA 1972-08-24 09:00:00 TS 19.3728 117.522 main 344 344 P_P______PPP__ WP161972 19.2000 117.400 32 -1 20.0574 118.000 1 29 1003 19.2000 117.400 TC 32 19.2066 117.409 1 32 19.2000 117.400 32 -99 5 257
1972234N17128 1972 77 WP MM CORA 1972-08-24 12:00:00 TS 19.3400 117.280 1006 tokyo main 361 361 O_O______OOO__ jtwc_wp WP161972 19.2000 117.200 35 0 19.9000 117.600 1 29 1003 19.2000 117.200 TC 35 19.2000 117.200 2 35 19.2000 117.200 35 -99 5 257
1972234N17128 1972 77 WP MM CORA 1972-08-24 15:00:00 TS 19.2639 117.037 main 391 388 P_P______PPP__ WP161972 19.2075 117.000 35 0 19.8001 117.170 1 29 1003 19.2075 117.000 TC 35 19.1863 116.984 2 36 19.2075 117.000 35 -99 5 253
1972234N17128 1972 77 WP MM CORA 1972-08-24 18:00:00 TS 19.2027 116.813 1004 tokyo main 404 402 OOO______OPO__ jtwc_wp WP161972 19.2000 116.800 35 0 18.3000 117.000 2 1004 0 0 0 19.7000 116.800 1 29 1003 19.2000 116.800 TC 35 19.1651 116.770 2 37 19.2000 116.800 35 -99 4 253
1972234N17128 1972 77 WP MM CORA 1972-08-24 21:00:00 TS 19.1392 116.617 main 411 409 PPP______PPP__ WP161972 19.1575 116.592 37 0 18.5275 116.848 2 1004 0 0 19.5499 116.563 1 29 1003 19.1575 116.592 TC 37 19.1363 116.571 2 38 19.1575 116.592 37 10 4 251
1972234N17128 1972 77 WP MM CORA 1972-08-25 00:00:00 TS 19.0833 116.450 1004 tokyo main 409 405 OOO______OOO__ jtwc_wp WP161972 19.1000 116.400 40 0 18.7000 116.700 2 1004 0 0 0 19.4000 116.400 1 29 1003 19.1000 116.400 TC 40 19.1000 116.400 2 40 19.1000 116.400 40 120 3 253
1972234N17128 1972 77 WP MM CORA 1972-08-25 03:00:00 TS 19.0452 116.297 main 417 414 PPP______PPP__ WP161972 19.0500 116.228 42 0 18.7800 116.557 2 1003 0 0 19.2924 116.258 1 29 1002 19.0500 116.228 TC 42 19.0489 116.283 2 41 19.0500 116.228 42 120 3 254
1972234N17128 1972 77 WP MM CORA 1972-08-25 06:00:00 TS 19.0068 116.175 1002 tokyo main 414 410 OOOO_____OPO__ jtwc_wp WP161972 19.0000 116.100 45 0 18.8000 116.400 2 1002 0 0 0 19.2000 116.100 1 29 1002 19.2000 116.400 TS 40 991 19.0000 116.100 TC 45 18.9923 116.192 2 42 19.0000 116.100 45 991 120 2 248
1972234N17128 1972 77 WP MM CORA 1972-08-25 09:00:00 TS 18.9568 116.059 main 410 407 PPPP_____PPP__ WP161972 18.9424 116.058 45 0 18.8075 116.207 2 999 0 0 19.0926 115.850 1 29 1001 19.1051 116.092 TS 40 990 18.9424 116.058 TC 45 18.9395 116.105 2 43 18.9424 116.058 45 990 120 3 249
1972234N17128 1972 77 WP MM CORA 1972-08-25 12:00:00 TS 18.9111 115.919 996 tokyo main 415 407 OOOO_____OOO__ jtwc_wp WP161972 18.9000 116.000 45 0 18.8000 116.000 9 996 0 0 0 19.0000 115.600 1 29 1000 19.0000 115.800 TS 40 990 18.9000 116.000 TC 45 18.9000 116.000 2 45 18.9000 116.000 45 990 120 3 257
1972234N17128 1972 77 WP MM CORA 1972-08-25 15:00:00 TS 18.8855 115.728 main 407 400 PPPP_____PPP__ WP161972 18.8926 115.815 45 0 18.7999 115.815 9 996 0 0 18.9424 115.435 1 33 996 18.8850 115.535 TS 40 989 18.8926 115.815 TC 45 18.8937 115.863 2 45 18.8926 115.815 45 989 150 4 264
1972234N17128 1972 77 WP MM CORA 1972-08-25 18:00:00 TS 18.8714 115.529 996 tokyo main 400 397 OOOO_____OPO__ jtwc_wp WP161972 18.9000 115.600 45 0 18.8000 115.600 9 996 0 0 0 18.9000 115.300 2 38 992 18.8000 115.300 TS 40 989 18.9000 115.600 TC 45 18.8998 115.703 2 45 18.9000 115.600 45 989 180 4 267
1972234N17128 1972 77 WP MM CORA 1972-08-25 21:00:00 TS 18.8662 115.346 main 394 391 PPPP_____PPP__ WP161972 18.9074 115.458 45 0 18.8001 115.293 9 993 0 0 18.8425 115.158 2 38 989 18.7925 115.085 TS 40 988 18.9074 115.458 TC 45 18.9061 115.516 2 45 18.9074 115.458 45 988 180 4 268
1972234N17128 1972 77 WP MM CORA 1972-08-26 00:00:00 TS 18.8571 115.157 990 tokyo main 391 389 OOOO_____OOO__ jtwc_wp WP161972 18.9000 115.300 45 0 18.8000 115.000 9 990 0 0 0 18.8000 115.000 2 38 987 18.8000 114.900 TS 40 988 18.9000 115.300 TC 45 18.9000 115.300 2 45 18.9000 115.300 45 987 180 4 264
1972234N17128 1972 77 WP MM CORA 1972-08-26 03:00:00 TS 18.8255 114.950 main 396 389 PPPP_____PPP__ WP161972 18.8575 115.072 47 0 18.8074 114.835 9 987 0 0 18.7925 114.800 2 48 985 18.7500 114.742 TS 42 986 18.8575 115.072 TC 47 18.8563 115.054 2 47 18.8575 115.072 47 985 150 4 260
1972234N17128 1972 77 WP MM CORA 1972-08-26 06:00:00 TS 18.7857 114.726 985 tokyo main 389 378 OOOO_____OPO__ jtwc_wp WP161972 18.8000 114.800 50 0 18.8000 114.700 9 985 0 0 0 18.8000 114.600 3 58 984 18.7000 114.600 TS 45 985 18.8000 114.800 TC 50 18.8001 114.780 2 50 18.8000 114.800 50 984 120 4 260
1972234N17128 1972 77 WP MM CORA 1972-08-26 09:00:00 TS 18.7458 114.494 main 381 360 PPPP_____PPP__ WP161972 18.7424 114.522 52 0 18.7500 114.500 9 982 0 0 18.8075 114.443 3 58 982 18.6925 114.458 TS 47 982 18.7424 114.522 TC 52 18.7438 114.491 2 52 18.7424 114.522 52 982 120 5 261
1972234N17128 1972 77 WP MM CORA 1972-08-26 12:00:00 TS 18.7143 114.243 980 tokyo main 350 330 OOOO_____OOO__ jtwc_wp WP161972 18.7000 114.200 55 0 18.7000 114.300 9 980 0 0 0 18.8000 114.300 3 58 980 18.7000 114.300 STS 50 980 18.7000 114.200 TC 55 18.7000 114.200 2 55 18.7000 114.200 55 980 120 5 265
1972234N17128 1972 77 WP MM CORA 1972-08-26 15:00:00 TS 18.6970 113.953 main 330 300 PPPP_____PPP__ WP161972 18.6927 113.778 57 0 18.6925 114.143 9 980 0 0 18.7424 114.165 3 58 979 18.6925 114.115 STS 52 980 18.6927 113.778 TC 57 18.6734 113.917 2 57 18.6927 113.778 57 978 120 5 268
1972234N17128 1972 77 WP MM CORA 1972-08-26 18:00:00 TS 18.6946 113.676 980 tokyo main 300 281 OOOO_____OPO__ jtwc_wp WP161972 18.7000 113.400 60 0 18.7000 114.000 9 980 0 0 0 18.7000 114.000 3 58 978 18.7000 113.900 STS 55 980 18.7000 113.400 TC 60 18.6625 113.635 2 60 18.7000 113.400 60 977 120 5 271
1972234N17128 1972 77 WP MM CORA 1972-08-26 21:00:00 TS 18.7014 113.478 main 281 261 PPPP_____PPP__ WP161972 18.6923 113.227 62 0 18.6924 113.880 9 977 0 0 18.7350 113.765 3 58 977 18.7350 113.657 STS 55 977 18.6923 113.227 TC 62 18.6703 113.361 2 62 18.6923 113.227 62 976 150 4 275
1972234N17128 1972 77 WP MM CORA 1972-08-27 00:00:00 TS 18.7286 113.286 975 tokyo main 261 228 OOOO_____OOO__ jtwc_wp WP161972 18.7000 113.100 65 1 18.7000 113.700 9 975 0 0 0 18.8000 113.500 3 58 976 18.8000 113.400 STS 55 975 18.7000 113.100 TC 65 18.7000 113.100 3 65 18.7000 113.100 65 976 180 4 280
1972234N17128 1972 77 WP MM CORA 1972-08-27 03:00:00 TS 18.7770 113.035 main 228 209 PPPP_____PPP__ WP161972 18.7350 112.858 65 1 18.7426 113.365 9 975 0 0 18.8499 113.257 3 58 974 18.8924 113.157 STS 55 975 18.7350 112.858 TC 65 18.7489 112.889 3 65 18.7350 112.858 65 975 180 5 283
1972234N17128 1972 77 WP MM CORA 1972-08-27 06:00:00 TS 18.8456 112.770 975 tokyo main 209 175 OOOO_____OPO__ jtwc_wp WP161972 18.8000 112.600 65 1 18.8000 113.000 9 975 0 0 0 18.9000 113.000 3 58 972 19.0000 112.900 STS 55 975 18.8000 112.600 TC 65 18.8193 112.687 3 65 18.8000 112.600 65 975 180 5 287
1972234N17128 1972 77 WP MM CORA 1972-08-27 09:00:00 TS 18.9196 112.535 main 175 152 PPPP_____PPP__ WP161972 18.8849 112.415 65 1 18.8499 112.727 9 975 0 0 18.9275 112.707 3 58 971 19.1000 112.600 STS 55 975 18.8849 112.415 TC 65 18.9051 112.467 3 65 18.8849 112.415 65 975 180 5 290
1972234N17128 1972 77 WP MM CORA 1972-08-27 12:00:00 TS 19.0143 112.286 975 tokyo main 152 118 OOOO_____OOO__ jtwc_wp WP161972 19.0000 112.200 65 1 18.9000 112.500 9 975 0 0 0 19.0000 112.400 3 58 970 19.2000 112.300 STS 55 975 19.0000 112.200 TC 65 19.0000 112.200 4 65 19.0000 112.200 65 975 180 5 293
1972234N17128 1972 77 WP MM CORA 1972-08-27 15:00:00 TS 19.1371 112.005 main 118 80 PPPP_____PPP__ WP161972 19.1574 111.888 65 1 18.9499 112.307 9 975 0 0 19.1773 112.122 3 58 970 19.2999 112.057 STS 55 975 19.1574 111.888 TC 65 19.0599 111.882 4 65 19.1574 111.888 65 975 210 6 293
1972234N17128 1972 77 WP MM CORA 1972-08-27 18:00:00 TS 19.2617 111.673 975 tokyo main 80 45 OOOO_____OPO__ jtwc_wp WP161972 19.3000 111.500 65 1 19.0000 112.100 9 975 0 0 0 19.4000 111.800 3 58 970 19.4000 111.800 STS 55 975 19.3000 111.500 TC 65 19.1318 111.511 4 65 19.3000 111.500 65 975 240 7 287
1972234N17128 1972 77 WP MM CORA 1972-08-27 21:00:00 TS 19.3341 111.309 main 45 11 PPPP_____PPP__ WP161972 19.3347 111.095 65 1 19.0047 111.867 9 975 0 0 19.6073 111.395 3 58 970 19.4844 111.532 STS 55 975 19.3347 111.095 TC 65 19.2378 111.085 4 65 19.3347 111.095 65 975 240 8 283
1972234N17128 1972 77 WP MM CORA 1972-08-28 00:00:00 TS 19.4429 110.843 975 tokyo main 10 0 OOOO_____OOO__ jtwc_wp WP161972 19.4000 110.600 65 1 19.1000 111.500 9 975 0 0 0 19.8000 110.900 3 58 970 19.6000 111.100 STS 55 975 19.4000 110.600 TC 65 19.4000 110.600 4 65 19.4000 110.600 65 975 240 11 287
1972234N17128 1972 77 WP MM CORA 1972-08-28 03:00:00 TS 19.6580 110.216 main 0 0 PPPP_____PPP__ WP161972 19.6052 109.965 60 0 19.4275 110.926 9 975 0 0 19.9426 110.307 3 58 972 19.7859 110.323 STS 52 977 19.6052 109.965 TC 60 19.6346 110.058 4 62 19.6052 109.965 60 976 210 13 292
1972234N17128 1972 77 WP MM CORA 1972-08-28 06:00:00 TS 19.9322 109.537 975 tokyo main 0 0 OOOO_____OPO__ jtwc_wp WP161972 19.9000 109.300 55 0 19.8000 110.200 9 975 0 0 0 20.1000 109.700 3 58 975 20.0000 109.500 STS 50 980 19.9000 109.300 TC 55 19.9253 109.460 4 60 19.9000 109.300 55 977 180 13 295
1972234N17128 1972 77 WP MM CORA 1972-08-28 09:00:00 TS 20.2205 108.945 main 61 61 PPPP_____PPP__ WP161972 20.2422 108.735 55 0 20.0152 109.400 9 977 0 0 20.3421 109.200 3 58 975 20.2067 108.977 STS 50 980 20.2422 108.735 TC 55 20.2533 108.832 4 57 20.2422 108.735 55 978 180 12 298
1972234N17128 1972 77 WP MM CORA 1972-08-28 12:00:00 TS 20.5143 108.371 980 tokyo main 113 47 OOOO_____OOO__ jtwc_wp WP161972 20.6000 108.200 55 0 20.2000 108.600 9 980 0 0 0 20.6000 108.700 3 58 975 20.4000 108.500 STS 50 980 20.6000 108.200 TC 55 20.6000 108.200 2 55 20.6000 108.200 55 980 180 12 297
1972234N17128 1972 77 WP MM CORA 1972-08-28 15:00:00 TS 20.7753 107.803 main 47 0 PPPP_____PPP__ WP161972 20.8922 107.664 52 0 20.4255 108.024 9 982 0 0 20.8075 108.107 3 58 975 20.5497 107.895 STS 47 985 20.8922 107.664 TC 52 20.9675 107.600 2 50 20.8922 107.664 52 984 150 12 297
1972234N17128 1972 77 WP MM CORA 1972-08-28 18:00:00 TS 21.0760 107.181 985 tokyo main 0 0 OOOO_____OPO__ jtwc_wp WP161972 21.2000 107.100 50 0 20.7000 107.300 9 985 0 0 0 21.0000 107.500 3 58 975 20.7000 107.200 TS 45 990 21.2000 107.100 TC 50 21.3441 107.001 2 45 21.2000 107.100 50 989 120 14 299
1972234N17128 1972 77 WP MM CORA 1972-08-28 21:00:00 TS 21.4528 106.496 main 0 0 PPPP_____PPP__ WP161972 21.6227 106.443 42 0 21.0363 106.140 9 992 0 0 21.1837 107.024 3 43 977 20.8884 106.423 TS 40 995 21.6227 106.443 TC 42 21.6987 106.401 2 40 21.6227 106.443 42 994 10 15 301
1972234N17128 1972 77 WP MM CORA 1972-08-29 00:00:00 TS 21.8429 105.824 1000 tokyo main 0 0 OOOO_____OOO__ jtwc_wp WP161972 22.0000 105.800 35 0 21.4000 104.700 2 1000 0 0 0 21.4000 106.400 1 29 980 21.1000 105.600 TS 35 1000 22.0000 105.800 TC 35 22.0000 105.800 2 35 22.0000 105.800 35 1000 -99 13 302
1972234N17128 1972 77 WP MM CORA 1972-08-29 03:00:00 TS 22.1424 105.298 main 0 0 P_P______PPP__ WP161972 22.1868 105.307 32 -1 2 0 0 21.6827 105.414 1 24 985 TS 22.1868 105.307 TC 32 22.2390 105.212 2 32 22.1868 105.307 32 1000 -99 11 295
1972234N17128 1972 77 WP MM CORA 1972-08-29 06:00:00 TS 22.3102 104.723 1000 tokyo main 0 0 O_O______OPO__ jtwc_wp WP161972 22.3000 104.800 30 -1 22.0000 104.200 0 19 990 22.3000 104.800 TC 30 22.4185 104.622 2 30 22.3000 104.800 30 1000 -99 12 288
1972234N17128 1972 77 WP MM CORA 1972-08-29 09:00:00 TS 22.4948 104.103 main 0 0 P________PPP__ WP161972 22.4800 104.130 27 -1 0 22.4800 104.130 TC 27 22.5389 104.021 2 27 22.4800 104.130 27 1000 -99 13 283
1972234N17128 1972 77 WP MM CORA 1972-08-29 12:00:00 TS 22.6000 103.400 1000 tokyo main 0 0 O________OOO__ jtwc_wp WP161972 22.6000 103.400 25 -1 22.6000 103.400 TC 25 22.6000 103.400 1 25 22.6000 103.400 25 1000 -99 13 274
1972234N17128 1972 77 WP MM CORA 1972-08-29 15:00:00 TS 22.5859 102.707 main 0 0 P________PPP__ WP161972 22.5798 102.692 -1 22.5798 102.692 TC 22.6041 102.751 1 22.5798 102.692 -37 -99 13 266
1972234N17128 1972 77 WP MM CORA 1972-08-29 18:00:00 TS 22.5157 102.020 1002 tokyo main 0 0 O________OPO__ jtwc_wp WP161972 22.5000 102.000 -1 22.5000 102.000 TC 22.5628 102.079 1 22.5000 102.000 -99 -99 13 264
1972234N17128 1972 77 WP MM CORA 1972-08-29 21:00:00 TS 22.4528 101.353 main 0 0 P________PPP__ WP161972 22.4404 101.340 -1 22.4404 101.340 TC 22.4900 101.393 1 22.4404 101.340 -99 -99 12 265
1972234N17128 1972 77 WP MM CORA 1972-08-30 00:00:00 TS 22.4000 100.700 main 0 O________OOO__ jtwc_wp WP161972 22.4000 100.700 -1 22.4000 100.700 TC 22.4000 100.700 1 22.4000 100.700 -99 -99 12 265

デジタル台風データ・検索

IBTrACS Databaseについて

本データベースは、米国NOAAが公開する1842年以降の世界の熱帯低気圧のベストトラックデータアーカイブInternational Best Track Archive for Climate Stewardship (IBTrACS)を、ウェブで閲覧しやすい形式に変換したものです。

最終更新日:2021-12-03